Terminal Aerodrome Forecast
Issued by NWS Paducah, KY

Home | Current Version | Previous Version | Text Only | Print | Product List | Glossary On
Versions: 1 2 3 4 5 6 7 8 9 10 11 12 13 14 15 16 17 18 19 20 21
000
FTUS43 KPAH 181700
TAFEVV
TAF
KEVV 181722Z 1818/1918 28005KT P6SM OVC018
     FM182000 29005KT P6SM SCT018 BKN030
     FM190000 00000KT P6SM SCT035
     FM190600 00000KT 5SM BR SCT008
     FM191400 23006KT P6SM BKN050=

USA.gov is the U.S. government's official web portal to all federal, state and local government web resources and services.